createdAt,value
2023-03-08T00:02:39.929Z,99308.06
2023-03-08T00:05:25.297Z,99311.50
2023-03-08T00:08:10.767Z,99313.44
2023-03-08T00:10:55.935Z,99314.91
2023-03-08T00:13:41.641Z,99322.41
2023-03-08T00:16:27.180Z,99320.63
2023-03-08T00:19:12.303Z,99317.25
2023-03-08T00:21:57.858Z,99315.69
2023-03-08T00:24:43.184Z,99319.13
2023-03-08T00:27:28.026Z,99307.09
2023-03-08T00:30:13.724Z,99308.94
2023-03-08T00:32:58.734Z,99318.88
2023-03-08T00:35:43.642Z,99320.03
2023-03-08T00:38:31.516Z,99310.47
2023-03-08T00:41:16.543Z,99308.78
2023-03-08T00:44:01.578Z,99301.84
2023-03-08T00:46:47.001Z,99302.53
2023-03-08T00:49:32.168Z,99301.22
2023-03-08T00:52:17.068Z,99298.03
2023-03-08T00:55:01.995Z,99284.19
2023-03-08T00:57:47.386Z,99285.34
2023-03-08T01:00:32.778Z,99281.06
2023-03-08T01:03:19.490Z,99281.16
2023-03-08T01:06:08.724Z,99272.09
2023-03-08T01:08:54.070Z,99272.88
2023-03-08T01:11:39.601Z,99255.47
2023-03-08T01:14:24.930Z,99262.66
2023-03-08T01:17:10.339Z,99258.97
2023-03-08T01:19:55.609Z,99272.03
2023-03-08T01:22:40.941Z,99276.72
2023-03-08T01:25:27.051Z,99273.22
2023-03-08T01:28:14.855Z,99274.16
2023-03-08T01:31:20.840Z,99265.34
2023-03-08T01:34:05.853Z,99269.69
2023-03-08T01:36:50.691Z,99267.06
2023-03-08T01:39:35.571Z,99276.28
2023-03-08T01:42:20.970Z,99266.22
2023-03-08T01:45:26.892Z,99266.03
2023-03-08T01:48:14.302Z,99269.28
2023-03-08T01:51:02.373Z,99271.75
2023-03-08T01:53:47.844Z,99266.19
2023-03-08T01:56:34.405Z,99262.41
2023-03-08T01:59:22.282Z,99259.06
2023-03-08T02:02:07.473Z,99261.75
2023-03-08T02:04:52.692Z,99255.31
2023-03-08T02:07:37.517Z,99264.50
2023-03-08T02:10:23.006Z,99257.56
2023-03-08T02:13:09.216Z,99259.44
2023-03-08T02:15:55.986Z,99258.16
2023-03-08T02:19:01.609Z,99260.00
2023-03-08T02:21:46.944Z,99252.44
2023-03-08T02:24:32.405Z,99251.59
2023-03-08T02:27:21.548Z,99252.97
2023-03-08T02:30:07.825Z,99246.25
2023-03-08T02:32:53.058Z,99251.22
2023-03-08T02:35:38.474Z,99254.50
2023-03-08T02:38:23.685Z,99252.44
2023-03-08T02:41:08.882Z,99252.47
2023-03-08T02:43:53.824Z,99248.22
2023-03-08T02:46:39.985Z,99248.75
2023-03-08T02:49:25.235Z,99245.97
2023-03-08T02:52:10.513Z,99249.94
2023-03-08T02:54:56.173Z,99240.53
2023-03-08T02:57:41.384Z,99228.09
2023-03-08T03:00:26.631Z,99229.50
2023-03-08T03:03:11.584Z,99234.34
2023-03-08T03:05:56.966Z,99229.16
2023-03-08T03:08:42.550Z,99225.06
2023-03-08T03:11:27.613Z,99213.34
2023-03-08T03:14:12.577Z,99214.75
2023-03-08T03:16:58.817Z,99203.44
2023-03-08T03:19:43.944Z,99201.75
2023-03-08T03:22:28.786Z,99198.63
2023-03-08T03:25:14.390Z,99199.34
2023-03-08T03:27:59.534Z,99204.97
2023-03-08T03:30:44.671Z,99209.66
2023-03-08T03:33:30.014Z,99212.03
2023-03-08T03:36:18.118Z,99214.38
2023-03-08T03:39:03.657Z,99214.38
2023-03-08T03:41:49.548Z,99215.38
2023-03-08T03:44:34.806Z,99206.31
2023-03-08T03:47:19.675Z,99209.66
2023-03-08T03:50:04.830Z,99199.22
2023-03-08T03:52:49.686Z,99205.34
2023-03-08T03:55:34.560Z,99203.59
2023-03-08T03:58:19.476Z,99203.59
2023-03-08T04:01:10.363Z,99211.72
2023-03-08T04:03:56.269Z,99215.50
2023-03-08T04:06:41.447Z,99221.31
2023-03-08T04:09:26.774Z,99213.09
2023-03-08T04:12:12.145Z,99200.50
2023-03-08T04:14:57.234Z,99204.59
2023-03-08T04:17:42.141Z,99199.50
2023-03-08T04:20:27.147Z,99203.69
2023-03-08T04:23:12.698Z,99210.31
2023-03-08T04:25:57.602Z,99212.13
2023-03-08T04:28:43.169Z,99214.50
2023-03-08T04:31:29.607Z,99207.16
2023-03-08T04:34:14.687Z,99203.31
2023-03-08T04:36:59.664Z,99199.00
2023-03-08T04:39:44.508Z,99189.66
2023-03-08T04:42:29.624Z,99184.63
2023-03-08T04:45:15.013Z,99184.88
2023-03-08T04:48:00.459Z,99187.09
2023-03-08T04:50:45.505Z,99176.66
2023-03-08T04:53:31.803Z,99164.53
2023-03-08T04:56:17.909Z,99166.19
2023-03-08T04:59:03.545Z,99163.91
2023-03-08T05:01:48.495Z,99160.75
2023-03-08T05:04:33.598Z,99161.69
2023-03-08T05:07:19.001Z,99160.91
2023-03-08T05:10:04.682Z,99161.22
2023-03-08T05:12:49.766Z,99156.50
2023-03-08T05:15:34.651Z,99153.28
2023-03-08T05:18:19.767Z,99152.44
2023-03-08T05:21:13.602Z,99158.84
2023-03-08T05:24:00.247Z,99147.66
2023-03-08T05:26:45.498Z,99139.16
2023-03-08T05:29:30.342Z,99148.66
2023-03-08T05:32:15.857Z,99144.09
2023-03-08T05:35:01.254Z,99126.94
2023-03-08T05:37:46.658Z,99127.97
2023-03-08T05:40:31.567Z,99127.91
2023-03-08T05:43:17.897Z,99123.75
2023-03-08T05:46:05.965Z,99124.56
2023-03-08T05:48:51.030Z,99120.63
2023-03-08T05:51:36.529Z,99116.22
2023-03-08T05:54:21.896Z,99115.47
2023-03-08T05:57:06.832Z,99109.72
2023-03-08T05:59:52.302Z,99107.94
2023-03-08T06:02:37.504Z,99109.72
2023-03-08T06:05:22.401Z,99106.38
2023-03-08T06:08:08.007Z,99108.03
2023-03-08T06:10:53.311Z,99099.94
2023-03-08T06:13:38.294Z,99092.09
2023-03-08T06:16:23.098Z,99087.69
2023-03-08T06:19:08.460Z,99089.88
2023-03-08T06:21:53.800Z,99082.53
2023-03-08T06:24:38.823Z,99088.06
2023-03-08T06:27:24.092Z,99095.53
2023-03-08T06:30:10.020Z,99091.94
2023-03-08T06:32:55.310Z,99091.72
2023-03-08T06:35:40.560Z,99090.78
2023-03-08T06:38:29.445Z,99089.00
2023-03-08T06:41:17.521Z,99091.00
2023-03-08T06:44:02.754Z,99089.19
2023-03-08T06:46:47.971Z,99089.88
2023-03-08T06:49:34.117Z,99078.81
2023-03-08T06:52:19.179Z,99073.22
2023-03-08T06:55:05.484Z,99071.13
2023-03-08T06:57:50.848Z,99070.53
2023-03-08T07:00:36.460Z,99066.13
2023-03-08T07:03:21.804Z,99065.22
2023-03-08T07:06:09.601Z,99057.75
2023-03-08T07:08:54.921Z,99053.94
2023-03-08T07:12:15.833Z,99040.09
2023-03-08T07:15:00.938Z,99046.91
2023-03-08T07:17:47.600Z,99039.63
2023-03-08T07:20:32.823Z,99027.59
2023-03-08T07:23:18.259Z,99027.50
2023-03-08T07:26:07.208Z,99025.06
2023-03-08T07:28:52.768Z,99020.13
2023-03-08T07:31:38.056Z,99017.50
2023-03-08T07:34:22.942Z,99020.81
2023-03-08T07:37:16.945Z,99015.91
2023-03-08T07:40:02.037Z,99015.09
2023-03-08T07:42:47.279Z,99005.72
2023-03-08T07:45:33.293Z,98999.69
2023-03-08T07:48:18.531Z,99008.59
2023-03-08T07:51:08.107Z,99008.44
2023-03-08T07:53:53.393Z,99004.19
2023-03-08T07:56:38.877Z,98998.41
2023-03-08T07:59:24.754Z,99002.50
2023-03-08T08:02:12.533Z,99000.25
2023-03-08T08:04:57.576Z,98994.19
2023-03-08T08:07:46.483Z,98984.09
2023-03-08T08:10:31.601Z,98983.34
2023-03-08T08:13:17.755Z,98981.56
2023-03-08T08:16:03.405Z,98980.06
2023-03-08T08:18:48.669Z,98979.16
2023-03-08T08:21:33.880Z,98976.94
2023-03-08T08:24:19.311Z,98975.66
2023-03-08T08:27:04.847Z,98967.97
2023-03-08T08:29:50.000Z,98970.94
2023-03-08T08:32:36.521Z,98961.03
2023-03-08T08:35:23.958Z,98957.06
2023-03-08T08:38:12.447Z,98958.22
2023-03-08T08:41:05.277Z,98965.66
2023-03-08T08:43:50.994Z,98961.19
2023-03-08T08:46:36.121Z,98954.72
2023-03-08T08:49:21.492Z,98956.59
2023-03-08T08:52:06.804Z,98956.78
2023-03-08T08:54:53.070Z,98956.50
2023-03-08T08:57:38.255Z,98947.19
2023-03-08T09:00:23.219Z,98945.72
2023-03-08T09:03:08.538Z,98941.63
2023-03-08T09:05:53.429Z,98934.78
2023-03-08T09:08:38.964Z,98941.00
2023-03-08T09:11:25.668Z,98940.66
2023-03-08T09:14:10.751Z,98936.28
2023-03-08T09:16:55.860Z,98934.81
2023-03-08T09:19:41.091Z,98926.16
2023-03-08T09:22:26.694Z,98913.69
2023-03-08T09:25:13.086Z,98916.78
2023-03-08T09:27:57.958Z,98923.91
2023-03-08T09:30:43.336Z,98920.56
2023-03-08T09:33:28.663Z,98916.50
2023-03-08T09:36:14.338Z,98914.88
2023-03-08T09:38:59.645Z,98913.47
2023-03-08T09:41:46.085Z,98909.53
2023-03-08T09:45:02.549Z,98907.00
2023-03-08T09:47:51.466Z,98897.16
2023-03-08T09:50:50.858Z,98900.75
2023-03-08T09:53:42.893Z,98888.00
2023-03-08T09:56:28.029Z,98889.53
2023-03-08T09:59:32.281Z,98893.78
2023-03-08T10:02:24.359Z,98889.84
2023-03-08T10:05:30.162Z,98881.25
2023-03-08T10:08:28.968Z,98878.38
2023-03-08T10:11:36.034Z,98885.16
2023-03-08T10:14:31.184Z,98877.97
2023-03-08T10:17:28.183Z,98865.41
2023-03-08T10:20:24.636Z,98878.69
2023-03-08T10:23:16.993Z,98875.59
2023-03-08T10:26:05.232Z,98868.03
2023-03-08T10:28:50.605Z,98871.97
2023-03-08T10:31:36.426Z,98869.50
2023-03-08T10:34:32.554Z,98865.97
2023-03-08T10:37:21.170Z,98860.31
2023-03-08T10:40:17.199Z,98860.88
2023-03-08T10:43:06.325Z,98852.94
2023-03-08T10:46:11.106Z,98852.84
2023-03-08T10:49:19.493Z,98846.59
2023-03-08T10:52:04.850Z,98832.84
2023-03-08T10:55:09.335Z,98819.44
2023-03-08T10:58:02.319Z,98819.38
2023-03-08T11:00:54.197Z,98823.06
2023-03-08T11:03:39.444Z,98818.47
2023-03-08T11:06:25.592Z,98821.38
2023-03-08T11:09:32.550Z,98823.28
2023-03-08T11:12:26.021Z,98826.84
2023-03-08T11:15:18.323Z,98816.78
2023-03-08T11:18:16.383Z,98800.50
2023-03-08T11:21:13.459Z,98806.84
2023-03-08T11:24:13.648Z,98809.41
2023-03-08T11:27:24.641Z,98798.59
2023-03-08T11:30:15.985Z,98803.00
2023-03-08T11:33:34.852Z,98807.66
2023-03-08T11:36:49.212Z,98790.31
2023-03-08T11:39:38.169Z,98781.13
2023-03-08T11:42:57.615Z,98762.38
2023-03-08T11:45:54.937Z,98766.63
2023-03-08T11:48:43.420Z,98758.53
2023-03-08T11:51:48.205Z,98770.31
2023-03-08T11:54:42.941Z,98760.50
2023-03-08T11:57:34.733Z,98758.78
2023-03-08T12:00:29.818Z,98763.88
2023-03-08T12:03:34.936Z,98757.75
2023-03-08T12:06:29.192Z,98742.47
2023-03-08T12:09:42.608Z,98732.91
2023-03-08T12:12:39.201Z,98720.91
2023-03-08T12:15:39.358Z,98719.34
2023-03-08T12:18:36.752Z,98717.91
2023-03-08T12:21:40.177Z,98708.38
2023-03-08T12:24:46.509Z,98714.03
2023-03-08T12:27:44.037Z,98710.59
2023-03-08T12:31:02.016Z,98713.97
2023-03-08T12:33:47.939Z,98715.66
2023-03-08T12:36:39.165Z,98714.94
2023-03-08T12:39:33.623Z,98685.53
2023-03-08T12:42:37.121Z,98678.88
2023-03-08T12:45:22.460Z,98677.38
2023-03-08T12:48:07.350Z,98652.31
2023-03-08T12:51:00.039Z,98636.97
2023-03-08T12:53:48.552Z,98621.16
2023-03-08T12:56:54.810Z,98618.44
2023-03-08T12:59:40.156Z,98630.63
2023-03-08T13:02:34.184Z,98626.03
2023-03-08T13:05:28.261Z,98631.03
2023-03-08T13:08:13.686Z,98626.03
2023-03-08T13:11:05.460Z,98626.94
2023-03-08T13:13:58.681Z,98628.06
2023-03-08T13:16:44.077Z,98618.03
2023-03-08T13:19:31.328Z,98615.28
2023-03-08T13:22:24.159Z,98617.72
2023-03-08T13:25:27.767Z,98627.22
2023-03-08T13:28:18.238Z,98633.22
2023-03-08T13:31:17.973Z,98633.31
2023-03-08T13:34:03.576Z,98615.22
2023-03-08T13:36:48.779Z,98625.38
2023-03-08T13:39:33.773Z,98624.13
2023-03-08T13:42:18.844Z,98618.44
2023-03-08T13:45:10.737Z,98621.97
2023-03-08T13:47:58.766Z,98606.09
2023-03-08T13:50:46.165Z,98594.22
2023-03-08T13:53:34.343Z,98565.88
2023-03-08T13:56:27.919Z,98549.94
2023-03-08T13:59:19.796Z,98568.59
2023-03-08T14:02:19.058Z,98571.78
2023-03-08T14:05:25.959Z,98567.38
2023-03-08T14:08:22.643Z,98564.97
2023-03-08T14:11:15.798Z,98566.75
2023-03-08T14:14:03.604Z,98569.28
2023-03-08T14:16:52.772Z,98568.38
2023-03-08T14:19:40.259Z,98558.97
2023-03-08T14:22:38.685Z,98552.34
2023-03-08T14:25:29.062Z,98545.50
2023-03-08T14:28:42.249Z,98545.66
2023-03-08T14:31:29.497Z,98545.84
2023-03-08T14:34:22.698Z,98548.38
2023-03-08T14:37:11.323Z,98538.94
2023-03-08T14:40:20.003Z,98529.53
2023-03-08T14:43:06.918Z,98536.41
2023-03-08T14:46:01.879Z,98532.16
2023-03-08T14:49:00.628Z,98532.09
2023-03-08T14:51:45.577Z,98513.97
2023-03-08T14:54:36.099Z,98506.56
2023-03-08T14:57:29.018Z,98511.91
2023-03-08T15:00:16.046Z,98514.31
2023-03-08T15:03:01.140Z,98502.44
2023-03-08T15:05:46.526Z,98488.09
2023-03-08T15:08:31.707Z,98499.94
2023-03-08T15:11:17.066Z,98511.84
2023-03-08T15:14:02.449Z,98525.53
2023-03-08T15:16:47.592Z,98523.94
2023-03-08T15:19:32.896Z,98510.16
2023-03-08T15:22:17.939Z,98515.16
2023-03-08T15:25:03.065Z,98513.59
2023-03-08T15:27:49.748Z,98514.53
2023-03-08T15:30:34.974Z,98525.63
2023-03-08T15:33:20.940Z,98534.78
2023-03-08T15:36:06.617Z,98523.69
2023-03-08T15:38:51.803Z,98521.38
2023-03-08T15:41:37.324Z,98522.16
2023-03-08T15:44:22.178Z,98524.03
2023-03-08T15:47:09.519Z,98525.53
2023-03-08T15:49:56.357Z,98525.69
2023-03-08T15:52:45.098Z,98521.94
2023-03-08T15:55:31.849Z,98524.28
2023-03-08T15:58:16.649Z,98530.19
2023-03-08T16:01:02.108Z,98533.66
2023-03-08T16:03:47.754Z,98530.28
2023-03-08T16:06:32.919Z,98540.50
2023-03-08T16:09:17.887Z,98553.25
2023-03-08T16:12:02.967Z,98564.19
2023-03-08T16:14:50.058Z,98566.75
2023-03-08T16:17:35.512Z,98575.06
2023-03-08T16:20:20.829Z,98570.66
2023-03-08T16:23:06.266Z,98577.31
2023-03-08T16:26:14.575Z,98577.91
2023-03-08T16:29:00.713Z,98581.53
2023-03-08T16:31:45.929Z,98592.47
2023-03-08T16:34:31.496Z,98601.75
2023-03-08T16:37:20.840Z,98600.78
2023-03-08T16:40:06.450Z,98593.09
2023-03-08T16:42:51.855Z,98596.56
2023-03-08T16:45:38.232Z,98607.41
2023-03-08T16:48:23.916Z,98612.50
2023-03-08T16:51:14.134Z,98613.78
2023-03-08T16:53:59.336Z,98626.69
2023-03-08T16:56:44.694Z,98622.38
2023-03-08T16:59:30.153Z,98628.50
2023-03-08T17:02:18.575Z,98626.53
2023-03-08T17:05:03.728Z,98632.50
2023-03-08T17:07:48.970Z,98624.03
2023-03-08T18:37:38.041Z,98579.28
2023-03-08T18:40:45.867Z,98584.47
2023-03-08T18:48:00.228Z,98587.09
2023-03-08T18:50:48.672Z,98594.78
2023-03-08T18:54:09.037Z,98593.13
2023-03-08T19:09:35.731Z,98589.69
2023-03-08T19:12:21.629Z,98587.09
2023-03-08T19:15:08.147Z,98586.25
2023-03-08T19:17:58.710Z,98587.91
2023-03-08T19:20:46.509Z,98589.94
2023-03-08T19:23:33.145Z,98585.63
2023-03-08T19:26:24.948Z,98576.19
2023-03-08T19:29:13.346Z,98576.97
2023-03-08T19:32:02.416Z,98572.63
2023-03-08T19:34:47.524Z,98560.84
2023-03-08T19:37:32.786Z,98569.47
2023-03-08T19:40:18.379Z,98570.91
2023-03-08T19:43:03.502Z,98568.56
2023-03-08T19:45:49.665Z,98556.72
2023-03-08T19:48:35.960Z,98555.66
2023-03-08T19:51:20.986Z,98546.38
2023-03-08T19:54:06.479Z,98554.72
2023-03-08T19:56:52.510Z,98555.91
2023-03-08T19:59:37.932Z,98555.78
2023-03-08T20:02:22.797Z,98550.84
2023-03-08T20:05:08.513Z,98551.66
2023-03-08T20:07:53.644Z,98547.81
2023-03-08T20:10:39.277Z,98551.44
2023-03-08T20:13:24.535Z,98550.69
2023-03-08T20:16:09.352Z,98548.25
2023-03-08T20:18:54.777Z,98552.66
2023-03-08T20:21:40.092Z,98555.66
2023-03-08T20:24:25.487Z,98548.13
2023-03-08T20:27:10.320Z,98557.69
2023-03-08T20:29:55.806Z,98552.75
2023-03-08T20:32:41.005Z,98556.91
2023-03-08T20:35:26.334Z,98561.94
2023-03-08T20:38:11.325Z,98552.63
2023-03-08T20:41:04.492Z,98554.44
2023-03-08T20:43:51.649Z,98545.09
2023-03-08T20:46:36.746Z,98547.59
2023-03-08T20:49:22.207Z,98535.00
2023-03-08T20:52:08.936Z,98519.56
2023-03-08T20:54:55.370Z,98528.97
2023-03-08T20:57:40.976Z,98528.19
2023-03-08T21:00:26.091Z,98529.97
2023-03-08T21:03:11.659Z,98519.78
2023-03-08T21:05:57.062Z,98522.34
2023-03-08T21:08:42.498Z,98515.66
2023-03-08T21:11:28.638Z,98507.00
2023-03-08T21:14:14.098Z,98503.78
2023-03-08T21:16:59.281Z,98498.47
2023-03-08T21:19:44.379Z,98495.06
2023-03-08T21:22:31.307Z,98493.53
2023-03-08T21:25:17.831Z,98483.25
2023-03-08T21:28:02.870Z,98491.84
2023-03-08T21:30:48.790Z,98489.25
2023-03-08T21:33:33.991Z,98481.59
2023-03-08T21:36:19.804Z,98474.91
2023-03-08T21:39:06.367Z,98475.72
2023-03-08T21:41:51.735Z,98475.00
2023-03-08T21:44:36.543Z,98472.09
2023-03-08T21:47:21.435Z,98462.09
2023-03-08T21:50:08.394Z,98463.19
2023-03-08T21:52:54.850Z,98459.84
2023-03-08T21:55:41.755Z,98453.91
2023-03-08T21:58:27.029Z,98444.16
2023-03-08T22:01:24.256Z,98445.06
2023-03-08T22:04:09.926Z,98445.84
2023-03-08T22:06:55.904Z,98441.63
2023-03-08T22:09:40.946Z,98432.31
2023-03-08T22:12:26.037Z,98444.13
2023-03-08T22:15:11.238Z,98435.72
2023-03-08T22:17:56.492Z,98427.00
2023-03-08T22:20:43.564Z,98438.09
2023-03-08T22:23:28.766Z,98449.19
2023-03-08T22:26:14.317Z,98441.38
2023-03-08T22:28:59.756Z,98439.03
2023-03-08T22:31:45.170Z,98434.94
2023-03-08T22:34:30.666Z,98432.00
2023-03-08T22:37:16.079Z,98438.00
2023-03-08T22:40:01.815Z,98441.53
2023-03-08T22:42:47.140Z,98439.72
2023-03-08T22:45:32.613Z,98430.25
2023-03-08T22:48:17.966Z,98420.97
2023-03-08T22:51:10.771Z,98409.03
2023-03-08T22:53:56.854Z,98408.13
2023-03-08T22:56:42.103Z,98416.50
2023-03-08T22:59:27.403Z,98410.72
2023-03-08T23:02:13.813Z,98420.16
2023-03-08T23:04:58.768Z,98425.31
2023-03-08T23:07:44.275Z,98425.19
2023-03-08T23:10:29.319Z,98423.56
2023-03-08T23:13:31.173Z,98415.13
2023-03-08T23:16:19.487Z,98410.84
2023-03-08T23:19:04.935Z,98418.38
2023-03-08T23:21:49.979Z,98423.44
2023-03-08T23:24:35.162Z,98422.50
2023-03-08T23:27:20.167Z,98414.13
2023-03-08T23:30:06.662Z,98401.41
2023-03-08T23:32:52.096Z,98400.59
2023-03-08T23:35:37.427Z,98399.59
2023-03-08T23:38:22.865Z,98394.66
2023-03-08T23:41:10.324Z,98388.72
2023-03-08T23:43:57.664Z,98376.03
2023-03-08T23:46:42.866Z,98363.19
2023-03-08T23:49:28.316Z,98360.50
2023-03-08T23:52:13.839Z,98348.72
2023-03-08T23:54:58.729Z,98352.13
2023-03-08T23:57:43.989Z,98353.78
